sensor_id;sensor_type;location;lat;lon;timestamp;temperature;humidity
53422;DHT22;39319;52.944;5.928;2023-04-24T00:01:50;14.10;99.90
53422;DHT22;39319;52.944;5.928;2023-04-24T00:04:16;14.10;99.90
53422;DHT22;39319;52.944;5.928;2023-04-24T00:06:42;14.00;99.90
53422;DHT22;39319;52.944;5.928;2023-04-24T00:09:09;14.00;99.90
53422;DHT22;39319;52.944;5.928;2023-04-24T00:11:38;14.10;99.90
53422;DHT22;39319;52.944;5.928;2023-04-24T00:14:03;13.90;99.90
53422;DHT22;39319;52.944;5.928;2023-04-24T00:16:29;14.00;99.90
53422;DHT22;39319;52.944;5.928;2023-04-24T00:18:55;14.00;99.90
53422;DHT22;39319;52.944;5.928;2023-04-24T00:21:21;13.90;99.90
53422;DHT22;39319;52.944;5.928;2023-04-24T00:23:47;13.90;99.90
53422;DHT22;39319;52.944;5.928;2023-04-24T00:26:13;13.90;99.90
53422;DHT22;39319;52.944;5.928;2023-04-24T00:28:41;13.80;99.90
53422;DHT22;39319;52.944;5.928;2023-04-24T00:31:07;13.90;99.90
53422;DHT22;39319;52.944;5.928;2023-04-24T00:33:33;13.90;99.90
53422;DHT22;39319;52.944;5.928;2023-04-24T00:35:58;13.80;99.90
53422;DHT22;39319;52.944;5.928;2023-04-24T00:38:24;13.80;99.90
53422;DHT22;39319;52.944;5.928;2023-04-24T00:40:50;13.70;99.90
53422;DHT22;39319;52.944;5.928;2023-04-24T00:43:16;13.90;99.90
53422;DHT22;39319;52.944;5.928;2023-04-24T00:45:42;13.90;99.90
53422;DHT22;39319;52.944;5.928;2023-04-24T00:48:09;13.80;99.90
53422;DHT22;39319;52.944;5.928;2023-04-24T00:50:36;13.80;99.90
53422;DHT22;39319;52.944;5.928;2023-04-24T00:53:01;13.70;99.90
53422;DHT22;39319;52.944;5.928;2023-04-24T00:55:27;13.70;99.80
53422;DHT22;39319;52.944;5.928;2023-04-24T00:57:53;13.70;99.90
53422;DHT22;39319;52.944;5.928;2023-04-24T01:00:19;13.80;99.90
53422;DHT22;39319;52.944;5.928;2023-04-24T01:02:44;13.70;99.90
53422;DHT22;39319;52.944;5.928;2023-04-24T01:05:14;13.60;99.90
53422;DHT22;39319;52.944;5.928;2023-04-24T01:07:45;13.60;99.90
53422;DHT22;39319;52.944;5.928;2023-04-24T01:10:13;13.50;99.90
53422;DHT22;39319;52.944;5.928;2023-04-24T01:12:39;13.60;99.90
53422;DHT22;39319;52.944;5.928;2023-04-24T01:15:06;13.50;99.90
53422;DHT22;39319;52.944;5.928;2023-04-24T01:17:32;13.50;99.90
53422;DHT22;39319;52.944;5.928;2023-04-24T01:19:59;13.60;99.90
53422;DHT22;39319;52.944;5.928;2023-04-24T01:22:25;13.50;99.90
53422;DHT22;39319;52.944;5.928;2023-04-24T01:24:52;13.60;99.90
53422;DHT22;39319;52.944;5.928;2023-04-24T01:27:19;13.50;99.90
53422;DHT22;39319;52.944;5.928;2023-04-24T01:29:45;13.40;99.90
53422;DHT22;39319;52.944;5.928;2023-04-24T01:32:11;13.40;99.90
53422;DHT22;39319;52.944;5.928;2023-04-24T01:34:37;13.50;99.90
53422;DHT22;39319;52.944;5.928;2023-04-24T01:37:04;13.40;99.90
53422;DHT22;39319;52.944;5.928;2023-04-24T01:39:30;13.30;99.90
53422;DHT22;39319;52.944;5.928;2023-04-24T01:41:57;13.30;99.90
53422;DHT22;39319;52.944;5.928;2023-04-24T01:44:23;13.40;99.90
53422;DHT22;39319;52.944;5.928;2023-04-24T01:46:49;13.30;99.90
53422;DHT22;39319;52.944;5.928;2023-04-24T01:49:19;13.40;99.90
53422;DHT22;39319;52.944;5.928;2023-04-24T01:51:45;13.40;99.90
53422;DHT22;39319;52.944;5.928;2023-04-24T01:54:11;13.50;99.90
53422;DHT22;39319;52.944;5.928;2023-04-24T01:56:40;13.50;99.90
53422;DHT22;39319;52.944;5.928;2023-04-24T01:59:07;13.40;99.90
53422;DHT22;39319;52.944;5.928;2023-04-24T02:01:35;13.40;99.90
53422;DHT22;39319;52.944;5.928;2023-04-24T02:04:01;13.40;99.90
53422;DHT22;39319;52.944;5.928;2023-04-24T02:06:27;13.40;99.90
53422;DHT22;39319;52.944;5.928;2023-04-24T02:08:53;13.40;99.90
53422;DHT22;39319;52.944;5.928;2023-04-24T02:11:19;13.40;99.90
53422;DHT22;39319;52.944;5.928;2023-04-24T02:13:44;13.20;99.90
53422;DHT22;39319;52.944;5.928;2023-04-24T02:16:10;13.30;99.90
53422;DHT22;39319;52.944;5.928;2023-04-24T02:18:36;13.30;99.90
53422;DHT22;39319;52.944;5.928;2023-04-24T02:21:02;13.30;99.90
53422;DHT22;39319;52.944;5.928;2023-04-24T02:23:27;13.20;99.90
53422;DHT22;39319;52.944;5.928;2023-04-24T02:25:53;13.30;99.90
53422;DHT22;39319;52.944;5.928;2023-04-24T02:28:19;13.30;99.90
53422;DHT22;39319;52.944;5.928;2023-04-24T02:30:45;13.20;99.90
53422;DHT22;39319;52.944;5.928;2023-04-24T02:33:11;13.40;99.90
53422;DHT22;39319;52.944;5.928;2023-04-24T02:35:37;13.20;99.90
53422;DHT22;39319;52.944;5.928;2023-04-24T02:38:03;13.30;99.90
53422;DHT22;39319;52.944;5.928;2023-04-24T02:40:29;13.30;99.90
53422;DHT22;39319;52.944;5.928;2023-04-24T02:42:55;13.30;99.90
53422;DHT22;39319;52.944;5.928;2023-04-24T02:45:20;13.20;99.90
53422;DHT22;39319;52.944;5.928;2023-04-24T02:47:46;13.30;99.90
53422;DHT22;39319;52.944;5.928;2023-04-24T02:50:12;13.30;99.90
53422;DHT22;39319;52.944;5.928;2023-04-24T02:52:37;13.30;99.90
53422;DHT22;39319;52.944;5.928;2023-04-24T02:55:06;13.40;99.90
53422;DHT22;39319;52.944;5.928;2023-04-24T02:57:33;13.30;99.90
53422;DHT22;39319;52.944;5.928;2023-04-24T02:59:59;13.30;99.90
53422;DHT22;39319;52.944;5.928;2023-04-24T03:02:25;13.20;99.90
53422;DHT22;39319;52.944;5.928;2023-04-24T03:04:50;13.40;99.90
53422;DHT22;39319;52.944;5.928;2023-04-24T03:07:16;13.20;99.90
53422;DHT22;39319;52.944;5.928;2023-04-24T03:09:42;13.30;99.90
53422;DHT22;39319;52.944;5.928;2023-04-24T03:12:07;13.40;99.90
53422;DHT22;39319;52.944;5.928;2023-04-24T03:14:33;13.40;99.90
53422;DHT22;39319;52.944;5.928;2023-04-24T03:17:00;13.30;99.90
53422;DHT22;39319;52.944;5.928;2023-04-24T03:19:25;13.30;99.90
53422;DHT22;39319;52.944;5.928;2023-04-24T03:21:51;13.30;99.90
53422;DHT22;39319;52.944;5.928;2023-04-24T03:24:17;13.40;99.90
53422;DHT22;39319;52.944;5.928;2023-04-24T03:26:42;13.30;99.90
53422;DHT22;39319;52.944;5.928;2023-04-24T03:29:08;13.40;99.90
53422;DHT22;39319;52.944;5.928;2023-04-24T03:31:34;13.30;99.90
53422;DHT22;39319;52.944;5.928;2023-04-24T03:34:00;13.40;99.90
53422;DHT22;39319;52.944;5.928;2023-04-24T03:36:26;13.40;99.90
53422;DHT22;39319;52.944;5.928;2023-04-24T03:38:51;13.30;99.90
53422;DHT22;39319;52.944;5.928;2023-04-24T03:41:17;13.50;99.90
53422;DHT22;39319;52.944;5.928;2023-04-24T03:43:43;13.30;99.90
53422;DHT22;39319;52.944;5.928;2023-04-24T03:46:08;13.40;99.90
53422;DHT22;39319;52.944;5.928;2023-04-24T03:48:35;13.30;99.90
53422;DHT22;39319;52.944;5.928;2023-04-24T03:51:01;13.40;99.90
53422;DHT22;39319;52.944;5.928;2023-04-24T03:53:26;13.40;99.90
53422;DHT22;39319;52.944;5.928;2023-04-24T03:55:53;13.20;99.90
53422;DHT22;39319;52.944;5.928;2023-04-24T03:58:19;13.20;99.90
53422;DHT22;39319;52.944;5.928;2023-04-24T04:00:44;13.20;99.90
53422;DHT22;39319;52.944;5.928;2023-04-24T04:03:12;13.10;99.90
53422;DHT22;39319;52.944;5.928;2023-04-24T04:05:39;13.30;99.90
53422;DHT22;39319;52.944;5.928;2023-04-24T04:08:05;13.20;99.90
53422;DHT22;39319;52.944;5.928;2023-04-24T04:10:31;13.30;99.90
53422;DHT22;39319;52.944;5.928;2023-04-24T04:12:59;13.30;99.90
53422;DHT22;39319;52.944;5.928;2023-04-24T04:15:25;13.10;99.90
53422;DHT22;39319;52.944;5.928;2023-04-24T04:17:51;13.10;99.90
53422;DHT22;39319;52.944;5.928;2023-04-24T04:20:16;13.20;99.90
53422;DHT22;39319;52.944;5.928;2023-04-24T04:22:42;13.10;99.90
53422;DHT22;39319;52.944;5.928;2023-04-24T04:25:08;13.30;99.90
53422;DHT22;39319;52.944;5.928;2023-04-24T04:27:34;13.20;99.90
53422;DHT22;39319;52.944;5.928;2023-04-24T04:30:01;13.10;99.90
53422;DHT22;39319;52.944;5.928;2023-04-24T04:32:33;13.10;99.90
53422;DHT22;39319;52.944;5.928;2023-04-24T04:35:00;13.10;99.90
53422;DHT22;39319;52.944;5.928;2023-04-24T04:37:29;13.10;99.90
53422;DHT22;39319;52.944;5.928;2023-04-24T04:39:59;13.00;99.90
53422;DHT22;39319;52.944;5.928;2023-04-24T04:42:26;12.90;99.90
53422;DHT22;39319;52.944;5.928;2023-04-24T04:44:53;13.00;99.90
53422;DHT22;39319;52.944;5.928;2023-04-24T04:47:20;13.10;99.90
53422;DHT22;39319;52.944;5.928;2023-04-24T04:49:48;13.00;99.90
53422;DHT22;39319;52.944;5.928;2023-04-24T04:52:13;13.10;99.90
53422;DHT22;39319;52.944;5.928;2023-04-24T04:54:39;13.10;99.90
53422;DHT22;39319;52.944;5.928;2023-04-24T04:57:05;13.20;99.90
53422;DHT22;39319;52.944;5.928;2023-04-24T04:59:31;13.10;99.90
53422;DHT22;39319;52.944;5.928;2023-04-24T05:01:57;12.90;99.90
53422;DHT22;39319;52.944;5.928;2023-04-24T05:04:22;12.90;99.80
53422;DHT22;39319;52.944;5.928;2023-04-24T05:06:48;12.90;99.70
53422;DHT22;39319;52.944;5.928;2023-04-24T05:09:16;12.80;99.80
53422;DHT22;39319;52.944;5.928;2023-04-24T05:11:42;12.80;99.90
53422;DHT22;39319;52.944;5.928;2023-04-24T05:14:07;12.80;99.90
53422;DHT22;39319;52.944;5.928;2023-04-24T05:16:33;12.80;99.90
53422;DHT22;39319;52.944;5.928;2023-04-24T05:18:59;12.80;99.90
53422;DHT22;39319;52.944;5.928;2023-04-24T05:21:24;12.90;99.90
53422;DHT22;39319;52.944;5.928;2023-04-24T05:23:50;12.90;99.90
53422;DHT22;39319;52.944;5.928;2023-04-24T05:26:16;12.80;99.90
53422;DHT22;39319;52.944;5.928;2023-04-24T05:28:43;12.80;99.90
53422;DHT22;39319;52.944;5.928;2023-04-24T05:31:08;12.90;99.90
53422;DHT22;39319;52.944;5.928;2023-04-24T05:33:34;12.80;99.90
53422;DHT22;39319;52.944;5.928;2023-04-24T05:36:00;12.70;99.90
53422;DHT22;39319;52.944;5.928;2023-04-24T05:38:26;12.80;99.90
53422;DHT22;39319;52.944;5.928;2023-04-24T05:40:51;12.70;99.90
53422;DHT22;39319;52.944;5.928;2023-04-24T05:43:20;12.70;99.90
53422;DHT22;39319;52.944;5.928;2023-04-24T05:45:45;12.70;99.90
53422;DHT22;39319;52.944;5.928;2023-04-24T05:48:11;12.80;99.80
53422;DHT22;39319;52.944;5.928;2023-04-24T05:50:37;12.80;99.70
53422;DHT22;39319;52.944;5.928;2023-04-24T05:53:03;12.90;99.80
53422;DHT22;39319;52.944;5.928;2023-04-24T05:55:31;13.00;99.60
53422;DHT22;39319;52.944;5.928;2023-04-24T05:57:56;12.90;99.80
53422;DHT22;39319;52.944;5.928;2023-04-24T06:00:23;13.00;99.50
53422;DHT22;39319;52.944;5.928;2023-04-24T06:02:49;12.50;99.50
53422;DHT22;39319;52.944;5.928;2023-04-24T06:05:15;12.80;99.50
53422;DHT22;39319;52.944;5.928;2023-04-24T06:07:41;12.80;99.40
53422;DHT22;39319;52.944;5.928;2023-04-24T06:10:07;12.90;99.50
53422;DHT22;39319;52.944;5.928;2023-04-24T06:12:33;12.90;99.60
53422;DHT22;39319;52.944;5.928;2023-04-24T06:14:59;12.80;99.60
53422;DHT22;39319;52.944;5.928;2023-04-24T06:17:25;12.90;99.30
53422;DHT22;39319;52.944;5.928;2023-04-24T06:19:51;13.00;99.40
53422;DHT22;39319;52.944;5.928;2023-04-24T06:22:17;12.90;99.30
53422;DHT22;39319;52.944;5.928;2023-04-24T06:24:42;12.90;99.10
53422;DHT22;39319;52.944;5.928;2023-04-24T06:27:08;13.00;99.10
53422;DHT22;39319;52.944;5.928;2023-04-24T06:29:35;12.80;99.20
53422;DHT22;39319;52.944;5.928;2023-04-24T06:32:01;12.70;99.30
53422;DHT22;39319;52.944;5.928;2023-04-24T06:34:26;12.80;99.30
53422;DHT22;39319;52.944;5.928;2023-04-24T06:36:52;12.90;99.40
53422;DHT22;39319;52.944;5.928;2023-04-24T06:39:18;12.80;99.30
53422;DHT22;39319;52.944;5.928;2023-04-24T06:41:43;12.80;99.30
53422;DHT22;39319;52.944;5.928;2023-04-24T06:44:12;12.70;99.40
53422;DHT22;39319;52.944;5.928;2023-04-24T06:46:40;12.70;99.50
53422;DHT22;39319;52.944;5.928;2023-04-24T06:49:06;12.90;99.40
53422;DHT22;39319;52.944;5.928;2023-04-24T06:51:32;12.70;99.00
53422;DHT22;39319;52.944;5.928;2023-04-24T06:53:59;12.80;99.30
53422;DHT22;39319;52.944;5.928;2023-04-24T06:56:25;12.70;99.30
53422;DHT22;39319;52.944;5.928;2023-04-24T06:58:51;12.80;99.40
53422;DHT22;39319;52.944;5.928;2023-04-24T07:01:17;12.70;99.20
53422;DHT22;39319;52.944;5.928;2023-04-24T07:03:43;12.70;99.00
53422;DHT22;39319;52.944;5.928;2023-04-24T07:06:09;12.50;99.10
53422;DHT22;39319;52.944;5.928;2023-04-24T07:08:36;12.50;99.00
53422;DHT22;39319;52.944;5.928;2023-04-24T07:11:02;12.40;99.50
53422;DHT22;39319;52.944;5.928;2023-04-24T07:13:28;12.50;99.20
53422;DHT22;39319;52.944;5.928;2023-04-24T07:15:54;12.60;99.40
53422;DHT22;39319;52.944;5.928;2023-04-24T07:18:22;12.40;99.40
53422;DHT22;39319;52.944;5.928;2023-04-24T07:20:47;12.30;99.30
53422;DHT22;39319;52.944;5.928;2023-04-24T07:23:16;12.20;99.50
53422;DHT22;39319;52.944;5.928;2023-04-24T07:25:42;12.40;99.40
53422;DHT22;39319;52.944;5.928;2023-04-24T07:28:08;12.30;99.30
53422;DHT22;39319;52.944;5.928;2023-04-24T07:30:33;12.30;99.30
53422;DHT22;39319;52.944;5.928;2023-04-24T07:32:59;12.20;99.30
53422;DHT22;39319;52.944;5.928;2023-04-24T07:35:28;12.30;99.10
53422;DHT22;39319;52.944;5.928;2023-04-24T07:37:54;12.50;99.20
53422;DHT22;39319;52.944;5.928;2023-04-24T07:40:20;12.20;98.70
53422;DHT22;39319;52.944;5.928;2023-04-24T07:42:46;12.30;99.00
53422;DHT22;39319;52.944;5.928;2023-04-24T07:45:14;12.40;98.80
53422;DHT22;39319;52.944;5.928;2023-04-24T07:47:43;12.20;98.80
53422;DHT22;39319;52.944;5.928;2023-04-24T07:50:11;12.20;98.90
53422;DHT22;39319;52.944;5.928;2023-04-24T07:52:38;12.30;98.50
53422;DHT22;39319;52.944;5.928;2023-04-24T07:55:04;12.20;98.50
53422;DHT22;39319;52.944;5.928;2023-04-24T07:57:30;12.10;98.50
53422;DHT22;39319;52.944;5.928;2023-04-24T07:59:56;12.10;98.40
53422;DHT22;39319;52.944;5.928;2023-04-24T08:02:22;12.10;98.10
53422;DHT22;39319;52.944;5.928;2023-04-24T08:04:52;12.10;98.40
53422;DHT22;39319;52.944;5.928;2023-04-24T08:07:19;12.20;98.00
53422;DHT22;39319;52.944;5.928;2023-04-24T08:09:45;12.20;98.10
53422;DHT22;39319;52.944;5.928;2023-04-24T08:12:11;12.10;98.00
53422;DHT22;39319;52.944;5.928;2023-04-24T08:14:36;12.20;98.20
53422;DHT22;39319;52.944;5.928;2023-04-24T08:17:02;12.30;98.30
53422;DHT22;39319;52.944;5.928;2023-04-24T08:19:29;12.20;97.80
53422;DHT22;39319;52.944;5.928;2023-04-24T08:21:55;12.20;97.90
53422;DHT22;39319;52.944;5.928;2023-04-24T08:24:20;12.30;97.90
53422;DHT22;39319;52.944;5.928;2023-04-24T08:26:46;12.20;98.10
53422;DHT22;39319;52.944;5.928;2023-04-24T08:29:15;12.30;98.00
53422;DHT22;39319;52.944;5.928;2023-04-24T08:31:41;12.30;98.20
53422;DHT22;39319;52.944;5.928;2023-04-24T08:34:07;12.30;97.60
53422;DHT22;39319;52.944;5.928;2023-04-24T08:36:33;12.20;97.70
53422;DHT22;39319;52.944;5.928;2023-04-24T08:38:59;12.30;97.70
53422;DHT22;39319;52.944;5.928;2023-04-24T08:41:24;12.20;97.80
53422;DHT22;39319;52.944;5.928;2023-04-24T08:43:52;12.30;97.60
53422;DHT22;39319;52.944;5.928;2023-04-24T08:46:19;12.30;97.60
53422;DHT22;39319;52.944;5.928;2023-04-24T08:48:45;12.20;97.60
53422;DHT22;39319;52.944;5.928;2023-04-24T08:51:11;12.30;97.60
53422;DHT22;39319;52.944;5.928;2023-04-24T08:53:37;12.30;97.50
53422;DHT22;39319;52.944;5.928;2023-04-24T08:56:03;12.30;97.40
53422;DHT22;39319;52.944;5.928;2023-04-24T08:58:31;12.50;97.00
53422;DHT22;39319;52.944;5.928;2023-04-24T09:00:59;12.40;96.70
53422;DHT22;39319;52.944;5.928;2023-04-24T09:03:27;12.40;96.50
53422;DHT22;39319;52.944;5.928;2023-04-24T09:05:55;12.40;96.30
53422;DHT22;39319;52.944;5.928;2023-04-24T09:08:24;12.50;96.10
53422;DHT22;39319;52.944;5.928;2023-04-24T09:10:51;12.30;95.60
53422;DHT22;39319;52.944;5.928;2023-04-24T09:13:20;12.70;95.90
53422;DHT22;39319;52.944;5.928;2023-04-24T09:15:46;12.70;95.90
53422;DHT22;39319;52.944;5.928;2023-04-24T09:18:12;12.70;95.30
53422;DHT22;39319;52.944;5.928;2023-04-24T09:21:07;12.80;95.50
53422;DHT22;39319;52.944;5.928;2023-04-24T09:23:33;12.70;95.60
53422;DHT22;39319;52.944;5.928;2023-04-24T09:26:01;12.60;95.50
53422;DHT22;39319;52.944;5.928;2023-04-24T09:28:31;12.60;95.50
53422;DHT22;39319;52.944;5.928;2023-04-24T09:31:12;12.50;95.50
53422;DHT22;39319;52.944;5.928;2023-04-24T09:33:40;12.50;95.80
53422;DHT22;39319;52.944;5.928;2023-04-24T09:36:06;12.40;96.00
53422;DHT22;39319;52.944;5.928;2023-04-24T09:38:36;12.50;96.00
53422;DHT22;39319;52.944;5.928;2023-04-24T09:41:05;12.40;95.50
53422;DHT22;39319;52.944;5.928;2023-04-24T09:43:31;12.60;95.50
53422;DHT22;39319;52.944;5.928;2023-04-24T09:45:58;12.30;95.90
53422;DHT22;39319;52.944;5.928;2023-04-24T09:48:34;12.40;95.50
53422;DHT22;39319;52.944;5.928;2023-04-24T09:51:04;12.30;95.90
53422;DHT22;39319;52.944;5.928;2023-04-24T09:53:32;12.40;96.10
53422;DHT22;39319;52.944;5.928;2023-04-24T09:56:11;12.40;95.90
53422;DHT22;39319;52.944;5.928;2023-04-24T09:58:39;12.40;95.70
53422;DHT22;39319;52.944;5.928;2023-04-24T10:01:05;12.50;95.70
53422;DHT22;39319;52.944;5.928;2023-04-24T10:03:32;12.30;95.90
53422;DHT22;39319;52.944;5.928;2023-04-24T10:05:59;12.50;95.80
53422;DHT22;39319;52.944;5.928;2023-04-24T10:08:25;12.30;95.60
53422;DHT22;39319;52.944;5.928;2023-04-24T10:10:52;12.40;95.50
53422;DHT22;39319;52.944;5.928;2023-04-24T10:13:18;12.50;95.50
53422;DHT22;39319;52.944;5.928;2023-04-24T10:15:44;12.40;95.60
53422;DHT22;39319;52.944;5.928;2023-04-24T10:18:12;12.30;95.70
53422;DHT22;39319;52.944;5.928;2023-04-24T10:20:39;12.50;95.60
53422;DHT22;39319;52.944;5.928;2023-04-24T10:23:05;12.30;95.50
53422;DHT22;39319;52.944;5.928;2023-04-24T10:25:33;12.30;96.00
53422;DHT22;39319;52.944;5.928;2023-04-24T10:28:00;12.30;96.00
53422;DHT22;39319;52.944;5.928;2023-04-24T10:30:34;12.20;95.90
53422;DHT22;39319;52.944;5.928;2023-04-24T10:33:08;12.20;96.10
53422;DHT22;39319;52.944;5.928;2023-04-24T10:35:37;12.20;96.00
53422;DHT22;39319;52.944;5.928;2023-04-24T10:38:12;12.30;96.20
53422;DHT22;39319;52.944;5.928;2023-04-24T10:40:38;12.30;95.90
53422;DHT22;39319;52.944;5.928;2023-04-24T10:43:05;12.40;95.90
53422;DHT22;39319;52.944;5.928;2023-04-24T10:45:34;12.30;95.20
53422;DHT22;39319;52.944;5.928;2023-04-24T10:48:09;12.40;94.70
53422;DHT22;39319;52.944;5.928;2023-04-24T10:50:53;12.30;94.30
53422;DHT22;39319;52.944;5.928;2023-04-24T10:53:23;12.40;94.50
53422;DHT22;39319;52.944;5.928;2023-04-24T10:55:50;12.40;93.90
53422;DHT22;39319;52.944;5.928;2023-04-24T10:58:23;12.50;93.70
53422;DHT22;39319;52.944;5.928;2023-04-24T11:00:57;12.50;93.00
53422;DHT22;39319;52.944;5.928;2023-04-24T11:03:28;12.40;93.80
53422;DHT22;39319;52.944;5.928;2023-04-24T11:06:06;12.40;94.10
53422;DHT22;39319;52.944;5.928;2023-04-24T11:08:52;12.40;94.20
53422;DHT22;39319;52.944;5.928;2023-04-24T11:11:28;12.30;94.40
53422;DHT22;39319;52.944;5.928;2023-04-24T11:16:37;12.50;94.20
53422;DHT22;39319;52.944;5.928;2023-04-24T11:19:08;12.40;94.30
53422;DHT22;39319;52.944;5.928;2023-04-24T11:21:40;12.40;94.30
53422;DHT22;39319;52.944;5.928;2023-04-24T11:26:54;12.60;93.90
53422;DHT22;39319;52.944;5.928;2023-04-24T11:29:21;12.40;93.60
53422;DHT22;39319;52.944;5.928;2023-04-24T11:31:47;12.80;93.10
53422;DHT22;39319;52.944;5.928;2023-04-24T11:34:17;12.60;93.20
53422;DHT22;39319;52.944;5.928;2023-04-24T11:36:47;12.60;93.30
53422;DHT22;39319;52.944;5.928;2023-04-24T11:39:14;12.60;93.30
53422;DHT22;39319;52.944;5.928;2023-04-24T11:41:40;12.70;93.40
53422;DHT22;39319;52.944;5.928;2023-04-24T11:44:07;12.60;93.80
53422;DHT22;39319;52.944;5.928;2023-04-24T11:46:33;12.60;93.90
53422;DHT22;39319;52.944;5.928;2023-04-24T11:48:59;12.70;93.50
53422;DHT22;39319;52.944;5.928;2023-04-24T11:51:26;12.80;93.40
53422;DHT22;39319;52.944;5.928;2023-04-24T11:53:54;12.80;94.10
53422;DHT22;39319;52.944;5.928;2023-04-24T11:56:24;12.80;93.30
53422;DHT22;39319;52.944;5.928;2023-04-24T11:58:52;13.00;93.10
53422;DHT22;39319;52.944;5.928;2023-04-24T12:01:19;13.20;93.10
53422;DHT22;39319;52.944;5.928;2023-04-24T12:03:50;13.10;93.20
53422;DHT22;39319;52.944;5.928;2023-04-24T12:06:17;13.30;92.50
53422;DHT22;39319;52.944;5.928;2023-04-24T12:08:46;13.20;92.20
53422;DHT22;39319;52.944;5.928;2023-04-24T12:11:15;13.20;92.10
53422;DHT22;39319;52.944;5.928;2023-04-24T12:13:41;13.10;91.90
53422;DHT22;39319;52.944;5.928;2023-04-24T12:16:07;13.00;92.10
53422;DHT22;39319;52.944;5.928;2023-04-24T12:18:33;12.90;92.90
53422;DHT22;39319;52.944;5.928;2023-04-24T12:21:18;12.90;92.50
53422;DHT22;39319;52.944;5.928;2023-04-24T12:23:44;12.90;92.40
53422;DHT22;39319;52.944;5.928;2023-04-24T12:26:20;13.00;92.70
53422;DHT22;39319;52.944;5.928;2023-04-24T12:28:49;12.90;93.00
53422;DHT22;39319;52.944;5.928;2023-04-24T12:31:16;12.90;92.80
53422;DHT22;39319;52.944;5.928;2023-04-24T12:33:42;13.00;92.80
53422;DHT22;39319;52.944;5.928;2023-04-24T12:36:11;13.10;92.40
53422;DHT22;39319;52.944;5.928;2023-04-24T12:38:38;12.90;92.50
53422;DHT22;39319;52.944;5.928;2023-04-24T12:41:07;13.00;92.00
53422;DHT22;39319;52.944;5.928;2023-04-24T12:43:34;13.20;92.30
53422;DHT22;39319;52.944;5.928;2023-04-24T12:46:00;13.10;92.20
53422;DHT22;39319;52.944;5.928;2023-04-24T12:48:29;13.10;92.30
53422;DHT22;39319;52.944;5.928;2023-04-24T12:50:57;13.00;92.20
53422;DHT22;39319;52.944;5.928;2023-04-24T12:53:26;12.90;91.90
53422;DHT22;39319;52.944;5.928;2023-04-24T12:55:53;13.00;92.10
53422;DHT22;39319;52.944;5.928;2023-04-24T12:58:20;12.80;92.80
53422;DHT22;39319;52.944;5.928;2023-04-24T13:00:46;12.60;93.40
53422;DHT22;39319;52.944;5.928;2023-04-24T13:03:12;12.60;93.40
53422;DHT22;39319;52.944;5.928;2023-04-24T13:05:38;12.50;93.00
53422;DHT22;39319;52.944;5.928;2023-04-24T13:08:04;12.40;92.80
53422;DHT22;39319;52.944;5.928;2023-04-24T13:10:32;12.40;93.10
53422;DHT22;39319;52.944;5.928;2023-04-24T13:12:58;12.40;93.30
53422;DHT22;39319;52.944;5.928;2023-04-24T13:15:23;12.40;93.70
53422;DHT22;39319;52.944;5.928;2023-04-24T13:17:50;12.50;93.20
53422;DHT22;39319;52.944;5.928;2023-04-24T13:20:16;12.50;93.10
53422;DHT22;39319;52.944;5.928;2023-04-24T13:22:42;12.60;93.60
53422;DHT22;39319;52.944;5.928;2023-04-24T13:25:10;12.60;93.70
53422;DHT22;39319;52.944;5.928;2023-04-24T13:27:38;12.50;93.40
53422;DHT22;39319;52.944;5.928;2023-04-24T13:30:05;12.60;93.10
53422;DHT22;39319;52.944;5.928;2023-04-24T13:32:32;12.90;93.00
53422;DHT22;39319;52.944;5.928;2023-04-24T13:34:58;12.70;92.90
53422;DHT22;39319;52.944;5.928;2023-04-24T13:37:24;12.90;92.80
53422;DHT22;39319;52.944;5.928;2023-04-24T13:39:50;12.90;92.40
53422;DHT22;39319;52.944;5.928;2023-04-24T13:42:16;12.90;91.90
53422;DHT22;39319;52.944;5.928;2023-04-24T13:44:42;12.80;91.90
53422;DHT22;39319;52.944;5.928;2023-04-24T13:47:08;12.70;92.20
53422;DHT22;39319;52.944;5.928;2023-04-24T13:49:34;12.70;92.20
53422;DHT22;39319;52.944;5.928;2023-04-24T13:51:59;12.60;92.10
53422;DHT22;39319;52.944;5.928;2023-04-24T13:54:25;12.50;92.20
53422;DHT22;39319;52.944;5.928;2023-04-24T13:56:52;12.60;92.60
53422;DHT22;39319;52.944;5.928;2023-04-24T13:59:18;12.70;92.50
53422;DHT22;39319;52.944;5.928;2023-04-24T14:01:44;12.60;92.80
53422;DHT22;39319;52.944;5.928;2023-04-24T14:04:10;12.30;93.40
53422;DHT22;39319;52.944;5.928;2023-04-24T14:06:36;12.60;93.00
53422;DHT22;39319;52.944;5.928;2023-04-24T14:09:02;12.50;92.70
53422;DHT22;39319;52.944;5.928;2023-04-24T14:11:28;12.50;92.40
53422;DHT22;39319;52.944;5.928;2023-04-24T14:13:54;12.60;92.40
53422;DHT22;39319;52.944;5.928;2023-04-24T14:16:22;12.50;92.60
53422;DHT22;39319;52.944;5.928;2023-04-24T14:18:47;12.60;92.70
53422;DHT22;39319;52.944;5.928;2023-04-24T14:21:13;12.60;92.90
53422;DHT22;39319;52.944;5.928;2023-04-24T14:23:39;12.50;92.80
53422;DHT22;39319;52.944;5.928;2023-04-24T14:26:04;12.60;93.20
53422;DHT22;39319;52.944;5.928;2023-04-24T14:28:30;12.30;93.00
53422;DHT22;39319;52.944;5.928;2023-04-24T14:30:56;12.50;93.10
53422;DHT22;39319;52.944;5.928;2023-04-24T14:33:22;12.40;93.00
53422;DHT22;39319;52.944;5.928;2023-04-24T14:35:47;12.30;93.30
53422;DHT22;39319;52.944;5.928;2023-04-24T14:38:13;12.40;93.50
53422;DHT22;39319;52.944;5.928;2023-04-24T14:40:41;12.50;93.10
53422;DHT22;39319;52.944;5.928;2023-04-24T14:43:07;12.40;92.90
53422;DHT22;39319;52.944;5.928;2023-04-24T14:45:33;12.40;93.20
53422;DHT22;39319;52.944;5.928;2023-04-24T14:47:59;12.40;93.70
53422;DHT22;39319;52.944;5.928;2023-04-24T14:50:25;12.50;93.70
53422;DHT22;39319;52.944;5.928;2023-04-24T14:52:54;12.40;93.90
53422;DHT22;39319;52.944;5.928;2023-04-24T14:55:22;12.30;93.60
53422;DHT22;39319;52.944;5.928;2023-04-24T14:57:48;12.30;93.40
53422;DHT22;39319;52.944;5.928;2023-04-24T15:00:14;12.10;93.90
53422;DHT22;39319;52.944;5.928;2023-04-24T15:02:42;12.20;94.00
53422;DHT22;39319;52.944;5.928;2023-04-24T15:05:10;12.20;94.10
53422;DHT22;39319;52.944;5.928;2023-04-24T15:07:37;12.50;94.10
53422;DHT22;39319;52.944;5.928;2023-04-24T15:10:03;12.40;94.20
53422;DHT22;39319;52.944;5.928;2023-04-24T15:12:29;12.20;94.20
53422;DHT22;39319;52.944;5.928;2023-04-24T15:14:55;12.20;94.30
53422;DHT22;39319;52.944;5.928;2023-04-24T15:17:21;12.20;94.20
53422;DHT22;39319;52.944;5.928;2023-04-24T15:19:46;12.00;94.40
53422;DHT22;39319;52.944;5.928;2023-04-24T15:22:12;12.10;94.20
53422;DHT22;39319;52.944;5.928;2023-04-24T15:24:38;12.20;94.00
53422;DHT22;39319;52.944;5.928;2023-04-24T15:27:04;12.10;94.30
53422;DHT22;39319;52.944;5.928;2023-04-24T15:29:30;12.10;94.40
53422;DHT22;39319;52.944;5.928;2023-04-24T15:31:58;12.10;94.90
53422;DHT22;39319;52.944;5.928;2023-04-24T15:34:23;12.00;95.20